Murray City, OH (43144)

4:35 AM EDT on August 01, 2014 (GMT -0400)
KOHNEWLE4 Elev 860 ft | 39.72 °N, 82.21 °W | Change Station

Current weather conditions updated 7 seconds ago

Fog
Fog
59.7 °F
Feels Like 59.7 °F
N
0.0
Wind Variable Wind from North
Gusts 0.0 mph

Today is forecast to be Warmer than yesterday. Thunderstorms developing in the afternoon.

Today
High -- | Low -- °F
--% Chance of Precip.
Yesterday
High -- | Low -- °F
Precip. -- in
6:28 AM 8:41 PM
Waxing Crescent, 24% visible
Pressure 30.10 in
Visibility 0.5 miles
Clouds Overcast 100 ft
Dew Point 59 °F
Humidity 98%
Rainfall 0.00 in
Snow Depth Not available.
UV 0 out of 12
Pollen 7.40 out of 12
Air Quality Not available.
Flu Activity Not available.
METAR KUNI 010815Z AUTO 00000KT 1/2SM FG OVC001 15/14 A3010 RMK AO2 T01450139

More Conditions Fewer Conditions

Pressure 30.10 in
Visibility 0.5 miles
Clouds Overcast 100 ft
Dew Point 59 °F
Humidity 98%
Rainfall 0.00 in
Snow Depth Not available.
UV 0 out of 12
Pollen 7.40 out of 12
Air Quality Not available.
Flu Activity Not available.
METAR KUNI 010815Z AUTO 00000KT 1/2SM FG OVC001 15/14 A3010 RMK AO2 T01450139

More Conditions Fewer Conditions

10-Day Weather Forecast

Almanac

Astronomy

Aug. 01, 2014 Rise Set
Actual Time 6:28 AM EDT 8:41 PM EDT
Civil Twilight 5:58 AM EDT 9:11 PM EDT
Nautical Twilight 5:21 AM EDT 9:47 PM EDT
Astronomical Twilight 4:40 AM EDT 10:28 PM EDT
Moon 11:49 AM EDT 11:26 PM EDT
Length of Visible Light 15h 12m
Length of Day
14h 13m
Tomorrow will be 1m 57s shorter.
Waxing Crescent, 24% of the Moon is Illuminated
Today
Waxing Crescent
Aug 3
First Quarter
Aug 10
Full
Aug 17
Last Quarter
Aug 25
New

Today's Extremes

State Highs State Lows

Community

WunderPhotos

Upload Photos

1,739,521 photos uploaded!

Nearby

Snow Depth

Station Depth Elevation
No new snow has been reported.

Earthquake Activity

City Distance Mag. Time & Date
No recent earthquake activity has been reported nearby.
Minimum magnitude displayed is 2.5.

Coastal Water Temperatures

Place Temperature
No Stations Reporting

Nearby Weather Stations

Station Location Temp. Dew Point Humidity Wind Precip. Elev Updated Type
OHDOT 31-Athens County Garage, Athens, OH 63 °F 61 °F 93% WNW  at  0 mph 0.00 in / hr 656 ft 1:00 AM EDT MADIS
New Lexington, OH 59.7 °F 59 °F 98% North  at  0.0 mph 0.00 in / hr 860 ft 4:35 AM EDT Rapid Fire
Whitlind Woods, Athens, OH 58.3 °F 57 °F 97% NE  at  0.0 mph 0.00 in / hr 713 ft 4:35 AM EDT Rapid Fire
Holly Hill@New Lex Reservoir, New Lexington, OH 65.8 °F 58 °F 77% SW  at  0.0 mph 0.00 in / hr 1056 ft 4:35 AM EDT Rapid Fire
RAWS ZALESKI OH, Zaleski, OH 60 °F 60 °F 100% NNW  at  1 mph 0.00 in / hr 729 ft 3:24 AM EDT MADIS

Show More Stations Show Fewer Stations